sensor_id;sensor_type;location;lat;lon;timestamp;P1;durP1;ratioP1;P2;durP2;ratioP2
14348;SDS011;7258;50.376;8.742;2022-12-04T00:00:46;20.20;;;15.20;;
14348;SDS011;7258;50.376;8.742;2022-12-04T00:02:49;25.03;;;16.30;;
14348;SDS011;7258;50.376;8.742;2022-12-04T00:04:52;20.97;;;15.23;;
14348;SDS011;7258;50.376;8.742;2022-12-04T00:06:56;22.43;;;15.70;;
14348;SDS011;7258;50.376;8.742;2022-12-04T00:08:59;26.07;;;16.80;;
14348;SDS011;7258;50.376;8.742;2022-12-04T00:11:02;22.40;;;15.10;;
14348;SDS011;7258;50.376;8.742;2022-12-04T00:13:05;22.87;;;15.40;;
14348;SDS011;7258;50.376;8.742;2022-12-04T00:15:09;22.77;;;15.77;;
14348;SDS011;7258;50.376;8.742;2022-12-04T00:17:27;21.00;;;15.20;;
14348;SDS011;7258;50.376;8.742;2022-12-04T00:19:30;19.50;;;14.77;;
14348;SDS011;7258;50.376;8.742;2022-12-04T00:21:33;20.50;;;14.93;;
14348;SDS011;7258;50.376;8.742;2022-12-04T00:23:37;22.13;;;14.67;;
14348;SDS011;7258;50.376;8.742;2022-12-04T00:25:41;22.00;;;15.67;;
14348;SDS011;7258;50.376;8.742;2022-12-04T00:27:48;21.30;;;15.60;;
14348;SDS011;7258;50.376;8.742;2022-12-04T00:29:51;21.47;;;15.33;;
14348;SDS011;7258;50.376;8.742;2022-12-04T00:31:54;21.50;;;15.97;;
14348;SDS011;7258;50.376;8.742;2022-12-04T00:33:58;24.13;;;16.00;;
14348;SDS011;7258;50.376;8.742;2022-12-04T00:36:05;18.97;;;14.73;;
14348;SDS011;7258;50.376;8.742;2022-12-04T00:38:10;20.57;;;14.90;;
14348;SDS011;7258;50.376;8.742;2022-12-04T00:40:14;22.17;;;14.90;;
14348;SDS011;7258;50.376;8.742;2022-12-04T00:42:17;20.67;;;15.80;;
14348;SDS011;7258;50.376;8.742;2022-12-04T00:44:20;20.57;;;14.33;;
14348;SDS011;7258;50.376;8.742;2022-12-04T00:46:23;22.20;;;15.37;;
14348;SDS011;7258;50.376;8.742;2022-12-04T00:48:26;21.43;;;14.63;;
14348;SDS011;7258;50.376;8.742;2022-12-04T00:50:29;22.43;;;16.37;;
14348;SDS011;7258;50.376;8.742;2022-12-04T00:52:32;21.17;;;15.13;;
14348;SDS011;7258;50.376;8.742;2022-12-04T00:54:34;20.83;;;14.03;;
14348;SDS011;7258;50.376;8.742;2022-12-04T00:56:39;22.03;;;15.73;;
14348;SDS011;7258;50.376;8.742;2022-12-04T00:58:41;22.37;;;15.33;;
14348;SDS011;7258;50.376;8.742;2022-12-04T01:00:44;22.60;;;15.40;;
14348;SDS011;7258;50.376;8.742;2022-12-04T01:02:48;18.93;;;14.13;;
14348;SDS011;7258;50.376;8.742;2022-12-04T01:04:51;21.90;;;14.80;;
14348;SDS011;7258;50.376;8.742;2022-12-04T01:06:53;20.47;;;14.47;;
14348;SDS011;7258;50.376;8.742;2022-12-04T01:09:05;20.13;;;14.30;;
14348;SDS011;7258;50.376;8.742;2022-12-04T01:11:08;21.80;;;15.97;;
14348;SDS011;7258;50.376;8.742;2022-12-04T01:13:14;21.70;;;15.97;;
14348;SDS011;7258;50.376;8.742;2022-12-04T01:15:17;22.13;;;15.23;;
14348;SDS011;7258;50.376;8.742;2022-12-04T01:17:20;19.83;;;15.37;;
14348;SDS011;7258;50.376;8.742;2022-12-04T01:19:23;21.90;;;15.17;;
14348;SDS011;7258;50.376;8.742;2022-12-04T01:21:26;20.10;;;15.17;;
14348;SDS011;7258;50.376;8.742;2022-12-04T01:23:29;22.30;;;15.40;;
14348;SDS011;7258;50.376;8.742;2022-12-04T01:25:32;24.60;;;14.93;;
14348;SDS011;7258;50.376;8.742;2022-12-04T01:27:35;21.67;;;15.33;;
14348;SDS011;7258;50.376;8.742;2022-12-04T01:29:39;22.80;;;15.73;;
14348;SDS011;7258;50.376;8.742;2022-12-04T01:31:42;20.70;;;14.50;;
14348;SDS011;7258;50.376;8.742;2022-12-04T01:33:46;20.23;;;15.43;;
14348;SDS011;7258;50.376;8.742;2022-12-04T01:35:51;23.07;;;16.33;;
14348;SDS011;7258;50.376;8.742;2022-12-04T01:37:54;22.83;;;16.03;;
14348;SDS011;7258;50.376;8.742;2022-12-04T01:39:57;22.60;;;15.53;;
14348;SDS011;7258;50.376;8.742;2022-12-04T01:42:01;22.47;;;15.80;;
14348;SDS011;7258;50.376;8.742;2022-12-04T01:44:05;20.37;;;14.57;;
14348;SDS011;7258;50.376;8.742;2022-12-04T01:46:13;19.77;;;14.53;;
14348;SDS011;7258;50.376;8.742;2022-12-04T01:48:18;22.13;;;15.27;;
14348;SDS011;7258;50.376;8.742;2022-12-04T01:50:28;22.13;;;14.90;;
14348;SDS011;7258;50.376;8.742;2022-12-04T01:52:31;22.53;;;15.50;;
14348;SDS011;7258;50.376;8.742;2022-12-04T01:54:35;20.93;;;15.27;;
14348;SDS011;7258;50.376;8.742;2022-12-04T01:56:42;23.10;;;15.40;;
14348;SDS011;7258;50.376;8.742;2022-12-04T01:58:49;20.90;;;14.53;;
14348;SDS011;7258;50.376;8.742;2022-12-04T02:00:56;21.67;;;15.30;;
14348;SDS011;7258;50.376;8.742;2022-12-04T02:03:10;23.60;;;16.30;;
14348;SDS011;7258;50.376;8.742;2022-12-04T02:05:15;23.13;;;15.67;;
14348;SDS011;7258;50.376;8.742;2022-12-04T02:07:20;24.20;;;15.70;;
14348;SDS011;7258;50.376;8.742;2022-12-04T02:09:23;21.47;;;15.17;;
14348;SDS011;7258;50.376;8.742;2022-12-04T02:11:29;23.33;;;14.97;;
14348;SDS011;7258;50.376;8.742;2022-12-04T02:13:41;23.27;;;15.70;;
14348;SDS011;7258;50.376;8.742;2022-12-04T02:15:56;23.67;;;15.43;;
14348;SDS011;7258;50.376;8.742;2022-12-04T02:18:06;22.17;;;14.20;;
14348;SDS011;7258;50.376;8.742;2022-12-04T02:20:18;22.70;;;15.30;;
14348;SDS011;7258;50.376;8.742;2022-12-04T02:22:36;22.37;;;15.13;;
14348;SDS011;7258;50.376;8.742;2022-12-04T02:25:04;22.43;;;14.10;;
14348;SDS011;7258;50.376;8.742;2022-12-04T02:27:14;23.80;;;15.60;;
14348;SDS011;7258;50.376;8.742;2022-12-04T02:29:35;20.13;;;14.23;;
14348;SDS011;7258;50.376;8.742;2022-12-04T02:31:42;22.63;;;15.13;;
14348;SDS011;7258;50.376;8.742;2022-12-04T02:33:53;24.17;;;15.13;;
14348;SDS011;7258;50.376;8.742;2022-12-04T02:36:03;22.13;;;15.73;;
14348;SDS011;7258;50.376;8.742;2022-12-04T02:38:09;23.50;;;15.23;;
14348;SDS011;7258;50.376;8.742;2022-12-04T02:40:16;22.27;;;14.60;;
14348;SDS011;7258;50.376;8.742;2022-12-04T02:42:25;23.13;;;15.83;;
14348;SDS011;7258;50.376;8.742;2022-12-04T02:44:37;25.10;;;15.43;;
14348;SDS011;7258;50.376;8.742;2022-12-04T02:46:44;21.20;;;15.93;;
14348;SDS011;7258;50.376;8.742;2022-12-04T02:48:51;24.40;;;15.70;;
14348;SDS011;7258;50.376;8.742;2022-12-04T02:51:00;21.53;;;15.40;;
14348;SDS011;7258;50.376;8.742;2022-12-04T02:53:08;21.93;;;15.00;;
14348;SDS011;7258;50.376;8.742;2022-12-04T02:55:15;21.60;;;15.20;;
14348;SDS011;7258;50.376;8.742;2022-12-04T02:57:22;23.10;;;15.73;;
14348;SDS011;7258;50.376;8.742;2022-12-04T02:59:29;22.27;;;15.37;;
14348;SDS011;7258;50.376;8.742;2022-12-04T03:01:37;24.43;;;16.03;;
14348;SDS011;7258;50.376;8.742;2022-12-04T03:03:44;22.47;;;15.73;;
14348;SDS011;7258;50.376;8.742;2022-12-04T03:05:54;20.07;;;15.13;;
14348;SDS011;7258;50.376;8.742;2022-12-04T03:08:01;21.60;;;15.03;;
14348;SDS011;7258;50.376;8.742;2022-12-04T03:10:10;21.87;;;15.10;;
14348;SDS011;7258;50.376;8.742;2022-12-04T03:12:19;20.13;;;14.90;;
14348;SDS011;7258;50.376;8.742;2022-12-04T03:14:27;21.27;;;14.93;;
14348;SDS011;7258;50.376;8.742;2022-12-04T03:16:34;19.30;;;14.00;;
14348;SDS011;7258;50.376;8.742;2022-12-04T03:18:41;22.47;;;14.77;;
14348;SDS011;7258;50.376;8.742;2022-12-04T03:20:49;21.57;;;14.90;;
14348;SDS011;7258;50.376;8.742;2022-12-04T03:22:58;20.93;;;14.47;;
14348;SDS011;7258;50.376;8.742;2022-12-04T03:25:04;21.03;;;15.43;;
14348;SDS011;7258;50.376;8.742;2022-12-04T03:27:09;21.33;;;14.40;;
14348;SDS011;7258;50.376;8.742;2022-12-04T03:29:17;21.90;;;15.37;;
14348;SDS011;7258;50.376;8.742;2022-12-04T03:31:24;21.67;;;15.40;;
14348;SDS011;7258;50.376;8.742;2022-12-04T03:33:39;21.67;;;15.17;;
14348;SDS011;7258;50.376;8.742;2022-12-04T03:35:45;20.37;;;14.33;;
14348;SDS011;7258;50.376;8.742;2022-12-04T03:37:55;22.80;;;15.47;;
14348;SDS011;7258;50.376;8.742;2022-12-04T03:40:04;21.23;;;15.27;;
14348;SDS011;7258;50.376;8.742;2022-12-04T03:42:12;21.33;;;15.03;;
14348;SDS011;7258;50.376;8.742;2022-12-04T03:44:20;21.87;;;14.37;;
14348;SDS011;7258;50.376;8.742;2022-12-04T03:46:25;22.77;;;15.37;;
14348;SDS011;7258;50.376;8.742;2022-12-04T03:48:35;21.73;;;15.27;;
14348;SDS011;7258;50.376;8.742;2022-12-04T03:50:50;26.27;;;16.50;;
14348;SDS011;7258;50.376;8.742;2022-12-04T03:52:58;24.17;;;15.27;;
14348;SDS011;7258;50.376;8.742;2022-12-04T03:55:09;19.70;;;14.67;;
14348;SDS011;7258;50.376;8.742;2022-12-04T03:57:18;19.37;;;14.23;;
14348;SDS011;7258;50.376;8.742;2022-12-04T03:59:25;19.80;;;13.87;;
14348;SDS011;7258;50.376;8.742;2022-12-04T04:01:31;20.77;;;15.20;;
14348;SDS011;7258;50.376;8.742;2022-12-04T04:03:40;19.83;;;14.60;;
14348;SDS011;7258;50.376;8.742;2022-12-04T04:05:47;20.07;;;14.83;;
14348;SDS011;7258;50.376;8.742;2022-12-04T04:07:53;21.37;;;14.93;;
14348;SDS011;7258;50.376;8.742;2022-12-04T04:10:19;21.20;;;14.57;;
14348;SDS011;7258;50.376;8.742;2022-12-04T04:12:25;23.77;;;15.60;;
14348;SDS011;7258;50.376;8.742;2022-12-04T04:14:32;23.53;;;15.33;;
14348;SDS011;7258;50.376;8.742;2022-12-04T04:16:58;20.03;;;14.43;;
14348;SDS011;7258;50.376;8.742;2022-12-04T04:19:23;20.60;;;14.87;;
14348;SDS011;7258;50.376;8.742;2022-12-04T04:21:47;20.87;;;14.50;;
14348;SDS011;7258;50.376;8.742;2022-12-04T04:24:11;20.73;;;14.17;;
14348;SDS011;7258;50.376;8.742;2022-12-04T04:26:27;20.97;;;14.30;;
14348;SDS011;7258;50.376;8.742;2022-12-04T04:28:35;22.17;;;15.67;;
14348;SDS011;7258;50.376;8.742;2022-12-04T04:30:39;22.57;;;14.50;;
14348;SDS011;7258;50.376;8.742;2022-12-04T04:32:44;20.43;;;14.37;;
14348;SDS011;7258;50.376;8.742;2022-12-04T04:34:52;20.27;;;14.10;;
14348;SDS011;7258;50.376;8.742;2022-12-04T04:37:02;19.57;;;14.43;;
14348;SDS011;7258;50.376;8.742;2022-12-04T04:39:14;19.57;;;13.83;;
14348;SDS011;7258;50.376;8.742;2022-12-04T04:41:23;20.47;;;14.33;;
14348;SDS011;7258;50.376;8.742;2022-12-04T04:43:34;22.33;;;15.23;;
14348;SDS011;7258;50.376;8.742;2022-12-04T04:45:42;19.03;;;13.83;;
14348;SDS011;7258;50.376;8.742;2022-12-04T04:47:49;19.27;;;14.33;;
14348;SDS011;7258;50.376;8.742;2022-12-04T04:49:56;20.00;;;13.90;;
14348;SDS011;7258;50.376;8.742;2022-12-04T04:52:02;16.27;;;13.10;;
14348;SDS011;7258;50.376;8.742;2022-12-04T04:54:06;19.23;;;13.53;;
14348;SDS011;7258;50.376;8.742;2022-12-04T04:56:11;18.53;;;13.53;;
14348;SDS011;7258;50.376;8.742;2022-12-04T04:58:17;17.77;;;13.70;;
14348;SDS011;7258;50.376;8.742;2022-12-04T05:00:21;17.93;;;12.50;;
14348;SDS011;7258;50.376;8.742;2022-12-04T05:02:24;18.20;;;13.90;;
14348;SDS011;7258;50.376;8.742;2022-12-04T05:04:28;17.33;;;13.10;;
14348;SDS011;7258;50.376;8.742;2022-12-04T05:06:32;19.00;;;14.10;;
14348;SDS011;7258;50.376;8.742;2022-12-04T05:08:35;15.83;;;12.27;;
14348;SDS011;7258;50.376;8.742;2022-12-04T05:10:38;17.23;;;13.17;;
14348;SDS011;7258;50.376;8.742;2022-12-04T05:12:41;18.10;;;13.00;;
14348;SDS011;7258;50.376;8.742;2022-12-04T05:14:45;18.33;;;13.23;;
14348;SDS011;7258;50.376;8.742;2022-12-04T05:16:48;18.23;;;12.73;;
14348;SDS011;7258;50.376;8.742;2022-12-04T05:18:51;18.00;;;13.57;;
14348;SDS011;7258;50.376;8.742;2022-12-04T05:21:12;17.03;;;13.50;;
14348;SDS011;7258;50.376;8.742;2022-12-04T05:23:18;17.87;;;13.67;;
14348;SDS011;7258;50.376;8.742;2022-12-04T05:25:21;19.63;;;13.30;;
14348;SDS011;7258;50.376;8.742;2022-12-04T05:27:24;18.27;;;13.10;;
14348;SDS011;7258;50.376;8.742;2022-12-04T05:29:28;15.67;;;12.10;;
14348;SDS011;7258;50.376;8.742;2022-12-04T05:31:36;16.57;;;12.33;;
14348;SDS011;7258;50.376;8.742;2022-12-04T05:33:38;17.10;;;13.07;;
14348;SDS011;7258;50.376;8.742;2022-12-04T05:35:41;16.80;;;13.07;;
14348;SDS011;7258;50.376;8.742;2022-12-04T05:37:44;18.50;;;13.37;;
14348;SDS011;7258;50.376;8.742;2022-12-04T05:39:50;18.10;;;12.90;;
14348;SDS011;7258;50.376;8.742;2022-12-04T05:41:54;15.90;;;12.63;;
14348;SDS011;7258;50.376;8.742;2022-12-04T05:43:56;17.67;;;12.43;;
14348;SDS011;7258;50.376;8.742;2022-12-04T05:46:00;18.30;;;13.37;;
14348;SDS011;7258;50.376;8.742;2022-12-04T05:48:03;16.90;;;12.20;;
14348;SDS011;7258;50.376;8.742;2022-12-04T05:50:07;16.43;;;12.20;;
14348;SDS011;7258;50.376;8.742;2022-12-04T05:52:11;16.90;;;12.07;;
14348;SDS011;7258;50.376;8.742;2022-12-04T05:54:14;15.27;;;12.17;;
14348;SDS011;7258;50.376;8.742;2022-12-04T05:56:21;16.30;;;11.43;;
14348;SDS011;7258;50.376;8.742;2022-12-04T05:58:24;14.47;;;11.37;;
14348;SDS011;7258;50.376;8.742;2022-12-04T06:00:27;16.53;;;12.00;;
14348;SDS011;7258;50.376;8.742;2022-12-04T06:02:32;15.57;;;11.93;;
14348;SDS011;7258;50.376;8.742;2022-12-04T06:04:35;14.77;;;11.10;;
14348;SDS011;7258;50.376;8.742;2022-12-04T06:06:38;16.10;;;13.30;;
14348;SDS011;7258;50.376;8.742;2022-12-04T06:08:41;16.20;;;12.47;;
14348;SDS011;7258;50.376;8.742;2022-12-04T06:10:44;16.03;;;11.90;;
14348;SDS011;7258;50.376;8.742;2022-12-04T06:12:48;15.10;;;11.80;;
14348;SDS011;7258;50.376;8.742;2022-12-04T06:14:51;15.90;;;12.33;;
14348;SDS011;7258;50.376;8.742;2022-12-04T06:16:54;17.00;;;12.30;;
14348;SDS011;7258;50.376;8.742;2022-12-04T06:18:58;15.90;;;12.40;;
14348;SDS011;7258;50.376;8.742;2022-12-04T06:21:02;16.63;;;12.43;;
14348;SDS011;7258;50.376;8.742;2022-12-04T06:23:05;15.53;;;12.30;;
14348;SDS011;7258;50.376;8.742;2022-12-04T06:25:08;16.63;;;12.73;;
14348;SDS011;7258;50.376;8.742;2022-12-04T06:27:12;16.30;;;11.97;;
14348;SDS011;7258;50.376;8.742;2022-12-04T06:29:32;14.73;;;11.53;;
14348;SDS011;7258;50.376;8.742;2022-12-04T06:31:34;15.33;;;11.63;;
14348;SDS011;7258;50.376;8.742;2022-12-04T06:33:38;15.10;;;11.63;;
14348;SDS011;7258;50.376;8.742;2022-12-04T06:35:41;14.63;;;11.07;;
14348;SDS011;7258;50.376;8.742;2022-12-04T06:37:44;15.20;;;11.37;;
14348;SDS011;7258;50.376;8.742;2022-12-04T06:39:47;14.77;;;11.67;;
14348;SDS011;7258;50.376;8.742;2022-12-04T06:41:50;13.90;;;11.00;;
14348;SDS011;7258;50.376;8.742;2022-12-04T06:43:53;15.10;;;11.73;;
14348;SDS011;7258;50.376;8.742;2022-12-04T06:46:02;15.10;;;11.40;;
14348;SDS011;7258;50.376;8.742;2022-12-04T06:48:06;14.43;;;11.13;;
14348;SDS011;7258;50.376;8.742;2022-12-04T06:50:09;17.10;;;12.90;;
14348;SDS011;7258;50.376;8.742;2022-12-04T06:52:12;15.70;;;11.83;;
14348;SDS011;7258;50.376;8.742;2022-12-04T06:54:15;17.37;;;11.97;;
14348;SDS011;7258;50.376;8.742;2022-12-04T06:56:19;17.10;;;12.40;;
14348;SDS011;7258;50.376;8.742;2022-12-04T06:58:25;17.80;;;12.23;;
14348;SDS011;7258;50.376;8.742;2022-12-04T07:00:29;15.17;;;11.53;;
14348;SDS011;7258;50.376;8.742;2022-12-04T07:02:33;16.70;;;11.60;;
14348;SDS011;7258;50.376;8.742;2022-12-04T07:04:36;15.43;;;11.67;;
14348;SDS011;7258;50.376;8.742;2022-12-04T07:06:39;16.33;;;12.27;;
14348;SDS011;7258;50.376;8.742;2022-12-04T07:08:43;17.07;;;12.67;;
14348;SDS011;7258;50.376;8.742;2022-12-04T07:10:47;17.50;;;12.50;;
14348;SDS011;7258;50.376;8.742;2022-12-04T07:12:57;16.67;;;12.57;;
14348;SDS011;7258;50.376;8.742;2022-12-04T07:15:00;18.93;;;13.77;;
14348;SDS011;7258;50.376;8.742;2022-12-04T07:17:03;17.17;;;13.00;;
14348;SDS011;7258;50.376;8.742;2022-12-04T07:19:07;16.70;;;12.70;;
14348;SDS011;7258;50.376;8.742;2022-12-04T07:21:11;16.47;;;12.53;;
14348;SDS011;7258;50.376;8.742;2022-12-04T07:23:16;19.87;;;14.37;;
14348;SDS011;7258;50.376;8.742;2022-12-04T07:25:20;20.23;;;13.90;;
14348;SDS011;7258;50.376;8.742;2022-12-04T07:27:22;18.40;;;13.23;;
14348;SDS011;7258;50.376;8.742;2022-12-04T07:29:25;17.27;;;12.87;;
14348;SDS011;7258;50.376;8.742;2022-12-04T07:31:28;19.50;;;13.67;;
14348;SDS011;7258;50.376;8.742;2022-12-04T07:33:31;19.60;;;13.67;;
14348;SDS011;7258;50.376;8.742;2022-12-04T07:35:35;20.70;;;14.53;;
14348;SDS011;7258;50.376;8.742;2022-12-04T07:37:38;21.00;;;14.93;;
14348;SDS011;7258;50.376;8.742;2022-12-04T07:39:41;21.20;;;13.60;;
14348;SDS011;7258;50.376;8.742;2022-12-04T07:41:44;20.83;;;14.80;;
14348;SDS011;7258;50.376;8.742;2022-12-04T07:43:47;19.97;;;14.20;;
14348;SDS011;7258;50.376;8.742;2022-12-04T07:45:49;20.23;;;13.77;;
14348;SDS011;7258;50.376;8.742;2022-12-04T07:47:52;21.03;;;15.17;;
14348;SDS011;7258;50.376;8.742;2022-12-04T07:49:55;18.57;;;13.10;;
14348;SDS011;7258;50.376;8.742;2022-12-04T07:52:00;22.10;;;15.23;;
14348;SDS011;7258;50.376;8.742;2022-12-04T07:54:03;21.77;;;15.77;;
14348;SDS011;7258;50.376;8.742;2022-12-04T07:56:06;21.03;;;15.47;;
14348;SDS011;7258;50.376;8.742;2022-12-04T07:58:09;21.40;;;15.67;;
14348;SDS011;7258;50.376;8.742;2022-12-04T08:00:12;23.73;;;15.77;;
14348;SDS011;7258;50.376;8.742;2022-12-04T08:02:16;23.57;;;15.30;;
14348;SDS011;7258;50.376;8.742;2022-12-04T08:04:18;22.90;;;15.10;;
14348;SDS011;7258;50.376;8.742;2022-12-04T08:06:22;23.30;;;15.50;;
14348;SDS011;7258;50.376;8.742;2022-12-04T08:08:28;26.10;;;16.13;;
14348;SDS011;7258;50.376;8.742;2022-12-04T08:10:31;25.50;;;15.90;;
14348;SDS011;7258;50.376;8.742;2022-12-04T08:12:34;25.23;;;15.90;;
14348;SDS011;7258;50.376;8.742;2022-12-04T08:14:36;25.10;;;16.93;;
14348;SDS011;7258;50.376;8.742;2022-12-04T08:16:39;24.97;;;15.57;;
14348;SDS011;7258;50.376;8.742;2022-12-04T08:18:51;26.37;;;17.60;;
14348;SDS011;7258;50.376;8.742;2022-12-04T08:21:00;31.70;;;20.13;;
14348;SDS011;7258;50.376;8.742;2022-12-04T08:23:04;27.47;;;17.30;;
14348;SDS011;7258;50.376;8.742;2022-12-04T08:25:08;28.77;;;18.87;;
14348;SDS011;7258;50.376;8.742;2022-12-04T08:27:11;25.53;;;16.60;;
14348;SDS011;7258;50.376;8.742;2022-12-04T08:29:14;27.60;;;17.17;;
14348;SDS011;7258;50.376;8.742;2022-12-04T08:31:18;27.23;;;16.90;;
14348;SDS011;7258;50.376;8.742;2022-12-04T08:33:23;25.77;;;16.67;;
14348;SDS011;7258;50.376;8.742;2022-12-04T08:35:26;27.70;;;17.60;;
14348;SDS011;7258;50.376;8.742;2022-12-04T08:37:28;32.87;;;18.20;;
14348;SDS011;7258;50.376;8.742;2022-12-04T08:39:31;26.63;;;16.87;;
14348;SDS011;7258;50.376;8.742;2022-12-04T08:41:36;28.23;;;17.03;;
14348;SDS011;7258;50.376;8.742;2022-12-04T08:43:38;28.53;;;18.57;;
14348;SDS011;7258;50.376;8.742;2022-12-04T08:45:42;26.57;;;17.67;;
14348;SDS011;7258;50.376;8.742;2022-12-04T08:47:45;25.47;;;16.93;;
14348;SDS011;7258;50.376;8.742;2022-12-04T08:49:52;26.33;;;17.03;;
14348;SDS011;7258;50.376;8.742;2022-12-04T08:51:55;26.27;;;16.67;;
14348;SDS011;7258;50.376;8.742;2022-12-04T08:53:59;27.57;;;17.17;;
14348;SDS011;7258;50.376;8.742;2022-12-04T08:56:03;28.93;;;17.63;;
14348;SDS011;7258;50.376;8.742;2022-12-04T08:58:08;26.63;;;17.30;;
14348;SDS011;7258;50.376;8.742;2022-12-04T09:00:11;28.60;;;18.30;;
14348;SDS011;7258;50.376;8.742;2022-12-04T09:02:15;29.23;;;18.70;;
14348;SDS011;7258;50.376;8.742;2022-12-04T09:04:18;29.50;;;18.13;;
14348;SDS011;7258;50.376;8.742;2022-12-04T09:06:21;27.27;;;17.93;;
14348;SDS011;7258;50.376;8.742;2022-12-04T09:08:25;27.57;;;17.80;;
14348;SDS011;7258;50.376;8.742;2022-12-04T09:10:28;29.67;;;19.43;;
14348;SDS011;7258;50.376;8.742;2022-12-04T09:12:31;28.03;;;18.13;;
14348;SDS011;7258;50.376;8.742;2022-12-04T09:14:35;26.60;;;18.03;;
14348;SDS011;7258;50.376;8.742;2022-12-04T09:16:39;27.43;;;17.90;;
14348;SDS011;7258;50.376;8.742;2022-12-04T09:18:42;27.00;;;17.20;;
14348;SDS011;7258;50.376;8.742;2022-12-04T09:20:53;26.53;;;17.73;;
14348;SDS011;7258;50.376;8.742;2022-12-04T09:22:56;26.50;;;17.23;;
14348;SDS011;7258;50.376;8.742;2022-12-04T09:25:05;24.80;;;16.60;;
14348;SDS011;7258;50.376;8.742;2022-12-04T09:27:08;28.73;;;18.03;;
14348;SDS011;7258;50.376;8.742;2022-12-04T09:29:15;28.67;;;19.80;;
14348;SDS011;7258;50.376;8.742;2022-12-04T09:31:19;27.20;;;18.00;;
14348;SDS011;7258;50.376;8.742;2022-12-04T09:33:24;26.67;;;18.10;;
14348;SDS011;7258;50.376;8.742;2022-12-04T09:35:27;32.03;;;18.43;;
14348;SDS011;7258;50.376;8.742;2022-12-04T09:37:30;26.70;;;16.70;;
14348;SDS011;7258;50.376;8.742;2022-12-04T09:39:34;25.37;;;15.67;;
14348;SDS011;7258;50.376;8.742;2022-12-04T09:41:52;26.73;;;17.67;;
14348;SDS011;7258;50.376;8.742;2022-12-04T09:44:21;27.60;;;17.27;;
14348;SDS011;7258;50.376;8.742;2022-12-04T09:46:30;28.30;;;17.40;;
14348;SDS011;7258;50.376;8.742;2022-12-04T09:48:37;26.13;;;17.67;;
14348;SDS011;7258;50.376;8.742;2022-12-04T09:50:44;26.37;;;16.80;;
14348;SDS011;7258;50.376;8.742;2022-12-04T09:52:49;27.43;;;18.13;;
14348;SDS011;7258;50.376;8.742;2022-12-04T09:54:57;27.57;;;18.13;;
14348;SDS011;7258;50.376;8.742;2022-12-04T09:57:04;26.80;;;17.20;;
14348;SDS011;7258;50.376;8.742;2022-12-04T09:59:18;25.17;;;16.93;;
14348;SDS011;7258;50.376;8.742;2022-12-04T10:01:23;25.57;;;16.33;;
14348;SDS011;7258;50.376;8.742;2022-12-04T10:03:30;24.80;;;17.20;;
14348;SDS011;7258;50.376;8.742;2022-12-04T10:05:36;32.50;;;21.83;;
14348;SDS011;7258;50.376;8.742;2022-12-04T10:07:53;25.63;;;17.60;;
14348;SDS011;7258;50.376;8.742;2022-12-04T10:10:06;26.97;;;18.30;;
14348;SDS011;7258;50.376;8.742;2022-12-04T10:12:19;26.47;;;16.90;;
14348;SDS011;7258;50.376;8.742;2022-12-04T10:14:42;25.27;;;17.43;;
14348;SDS011;7258;50.376;8.742;2022-12-04T10:16:55;27.23;;;17.77;;
14348;SDS011;7258;50.376;8.742;2022-12-04T10:19:23;25.07;;;16.50;;
14348;SDS011;7258;50.376;8.742;2022-12-04T10:21:40;25.40;;;17.50;;
14348;SDS011;7258;50.376;8.742;2022-12-04T10:23:53;27.30;;;17.10;;
14348;SDS011;7258;50.376;8.742;2022-12-04T10:26:04;26.57;;;17.53;;
14348;SDS011;7258;50.376;8.742;2022-12-04T10:28:18;23.20;;;15.50;;
14348;SDS011;7258;50.376;8.742;2022-12-04T10:30:29;23.73;;;16.27;;
14348;SDS011;7258;50.376;8.742;2022-12-04T10:32:34;23.93;;;15.67;;
14348;SDS011;7258;50.376;8.742;2022-12-04T10:34:40;22.20;;;16.20;;
14348;SDS011;7258;50.376;8.742;2022-12-04T10:36:51;23.20;;;15.93;;
14348;SDS011;7258;50.376;8.742;2022-12-04T10:38:56;22.30;;;15.63;;
14348;SDS011;7258;50.376;8.742;2022-12-04T10:41:01;22.70;;;15.57;;
14348;SDS011;7258;50.376;8.742;2022-12-04T10:43:15;22.53;;;15.60;;
14348;SDS011;7258;50.376;8.742;2022-12-04T10:45:24;21.37;;;14.67;;
14348;SDS011;7258;50.376;8.742;2022-12-04T10:47:27;25.07;;;16.17;;
14348;SDS011;7258;50.376;8.742;2022-12-04T10:49:31;23.20;;;15.67;;
14348;SDS011;7258;50.376;8.742;2022-12-04T10:51:38;24.00;;;15.67;;
14348;SDS011;7258;50.376;8.742;2022-12-04T10:53:43;23.53;;;15.77;;
14348;SDS011;7258;50.376;8.742;2022-12-04T10:55:49;20.77;;;15.80;;
14348;SDS011;7258;50.376;8.742;2022-12-04T10:57:52;21.70;;;15.77;;
14348;SDS011;7258;50.376;8.742;2022-12-04T10:59:55;23.00;;;16.40;;
14348;SDS011;7258;50.376;8.742;2022-12-04T11:02:01;22.20;;;15.60;;
14348;SDS011;7258;50.376;8.742;2022-12-04T11:04:17;21.83;;;15.30;;
14348;SDS011;7258;50.376;8.742;2022-12-04T11:06:23;19.97;;;14.23;;
14348;SDS011;7258;50.376;8.742;2022-12-04T11:08:30;22.03;;;15.83;;
14348;SDS011;7258;50.376;8.742;2022-12-04T11:10:37;23.67;;;16.57;;
14348;SDS011;7258;50.376;8.742;2022-12-04T11:12:51;22.23;;;15.83;;
14348;SDS011;7258;50.376;8.742;2022-12-04T11:14:59;22.60;;;15.37;;
14348;SDS011;7258;50.376;8.742;2022-12-04T11:17:04;20.90;;;14.93;;
14348;SDS011;7258;50.376;8.742;2022-12-04T11:19:17;22.43;;;15.13;;
14348;SDS011;7258;50.376;8.742;2022-12-04T11:21:26;21.73;;;15.17;;
14348;SDS011;7258;50.376;8.742;2022-12-04T11:23:32;21.60;;;14.47;;
14348;SDS011;7258;50.376;8.742;2022-12-04T11:25:43;20.53;;;15.10;;
14348;SDS011;7258;50.376;8.742;2022-12-04T11:27:49;20.90;;;14.53;;
14348;SDS011;7258;50.376;8.742;2022-12-04T11:29:55;18.83;;;14.07;;
14348;SDS011;7258;50.376;8.742;2022-12-04T11:31:59;22.20;;;14.67;;
14348;SDS011;7258;50.376;8.742;2022-12-04T11:34:08;21.13;;;15.67;;
14348;SDS011;7258;50.376;8.742;2022-12-04T11:36:18;21.10;;;14.90;;
14348;SDS011;7258;50.376;8.742;2022-12-04T11:38:23;21.40;;;15.43;;
14348;SDS011;7258;50.376;8.742;2022-12-04T11:40:29;21.73;;;15.80;;
14348;SDS011;7258;50.376;8.742;2022-12-04T11:42:32;22.63;;;16.00;;
14348;SDS011;7258;50.376;8.742;2022-12-04T11:44:35;22.33;;;15.67;;
14348;SDS011;7258;50.376;8.742;2022-12-04T11:46:37;20.57;;;15.17;;
14348;SDS011;7258;50.376;8.742;2022-12-04T11:48:42;22.67;;;15.97;;
14348;SDS011;7258;50.376;8.742;2022-12-04T11:50:48;22.60;;;15.37;;
14348;SDS011;7258;50.376;8.742;2022-12-04T11:52:58;22.07;;;16.10;;
14348;SDS011;7258;50.376;8.742;2022-12-04T11:55:09;21.50;;;15.30;;
14348;SDS011;7258;50.376;8.742;2022-12-04T11:57:29;19.70;;;14.37;;
14348;SDS011;7258;50.376;8.742;2022-12-04T11:59:40;22.00;;;14.83;;
14348;SDS011;7258;50.376;8.742;2022-12-04T12:01:56;19.90;;;14.40;;
14348;SDS011;7258;50.376;8.742;2022-12-04T12:04:07;21.70;;;15.33;;
14348;SDS011;7258;50.376;8.742;2022-12-04T12:06:27;22.70;;;15.50;;
14348;SDS011;7258;50.376;8.742;2022-12-04T12:08:38;19.40;;;14.23;;
14348;SDS011;7258;50.376;8.742;2022-12-04T12:10:54;23.53;;;16.00;;
14348;SDS011;7258;50.376;8.742;2022-12-04T12:13:04;23.03;;;16.70;;
14348;SDS011;7258;50.376;8.742;2022-12-04T12:15:18;21.83;;;15.77;;
14348;SDS011;7258;50.376;8.742;2022-12-04T12:17:28;21.93;;;15.47;;
14348;SDS011;7258;50.376;8.742;2022-12-04T12:19:48;20.27;;;14.67;;
14348;SDS011;7258;50.376;8.742;2022-12-04T12:22:02;20.33;;;15.53;;
14348;SDS011;7258;50.376;8.742;2022-12-04T12:24:16;20.90;;;15.27;;
14348;SDS011;7258;50.376;8.742;2022-12-04T12:26:26;20.87;;;15.07;;
14348;SDS011;7258;50.376;8.742;2022-12-04T12:28:44;20.50;;;15.57;;
14348;SDS011;7258;50.376;8.742;2022-12-04T12:31:05;23.13;;;16.33;;